Time;durP1;ratioP1;P1;durP2;ratioP2;P2;SDS_P1;SDS_P2;PMS_P1;PMS_P2;Temp;Humidity;BMP_temperature;BMP_pressure;BME280_temperature;BME280_humidity;BME280_pressure;Samples;Min_cycle;Max_cycle;Signal;HPM_P1;HPM_P2
2021/08/02 00:00:34;;;;;;;1.70;0.95;;;;;;;;;;5027446;28;20049;-58
2021/08/02 00:03:09;;;;;;;2.10;1.02;;;;;;;;;;5032595;28;20123;-58
2021/08/02 00:05:39;;;;;;;1.25;0.90;;;;;;;;;;5031571;28;20057;-58
2021/08/02 00:08:08;;;;;;;1.85;1.10;;;;;;;;;;5033034;28;20054;-58
2021/08/02 00:10:38;;;;;;;2.00;1.02;;;;;;;;;;5034142;28;20139;-58
2021/08/02 00:13:09;;;;;;;1.77;1.10;;;;;;;;;;5028812;28;20073;-59
2021/08/02 00:15:38;;;;;;;1.40;1.00;;;;;;;;;;5032240;28;20132;-59
2021/08/02 00:18:07;;;;;;;1.98;1.40;;;;;;;;;;5032686;28;20084;-59
2021/08/02 00:20:36;;;;;;;1.60;0.90;;;;;;;;;;5033930;28;20076;-58
2021/08/02 00:23:06;;;;;;;2.50;1.08;;;;;;;;;;5032845;28;20045;-59
2021/08/02 00:25:35;;;;;;;1.98;1.13;;;;;;;;;;5032291;28;20052;-59
2021/08/02 00:28:05;;;;;;;1.33;0.90;;;;;;;;;;5032412;28;20584;-59
2021/08/02 00:30:34;;;;;;;2.30;1.23;;;;;;;;;;5032460;28;20077;-58
2021/08/02 00:33:02;;;;;;;1.85;1.40;;;;;;;;;;5032170;28;20399;-58
2021/08/02 00:35:33;;;;;;;1.85;1.10;;;;;;;;;;5032154;28;20092;-58
2021/08/02 00:38:04;;;;;;;1.90;1.20;;;;;;;;;;5031819;28;20037;-58
2021/08/02 00:41:02;;;;;;;2.47;1.38;;;;;;;;;;5028521;28;20257;-59
2021/08/02 00:43:42;;;;;;;1.52;1.05;;;;;;;;;;4970764;28;20543;-58
2021/08/02 00:46:11;;;;;;;1.30;1.17;;;;;;;;;;5023197;28;20409;-59
2021/08/02 00:48:45;;;;;;;1.25;0.90;;;;;;;;;;5031896;28;20493;-58
2021/08/02 00:51:13;;;;;;;1.83;1.30;;;;;;;;;;5032646;28;20092;-58
2021/08/02 00:53:42;;;;;;;1.77;1.10;;;;;;;;;;5031105;28;20076;-58
2021/08/02 00:56:11;;;;;;;2.70;1.10;;;;;;;;;;5031746;28;20502;-58
2021/08/02 00:58:41;;;;;;;1.88;1.15;;;;;;;;;;5031676;28;20046;-58
2021/08/02 01:01:10;;;;;;;2.30;1.30;;;;;;;;;;5032378;28;20136;-58
2021/08/02 01:03:42;;;;;;;1.83;1.20;;;;;;;;;;5046153;23;20139;-70
2021/08/02 01:06:11;;;;;;;2.47;1.60;;;;;;;;;;5049077;28;20057;-72
2021/08/02 01:08:40;;;;;;;2.65;1.10;;;;;;;;;;5047125;28;20045;-70
2021/08/02 01:11:09;;;;;;;3.95;1.27;;;;;;;;;;5050443;28;20128;-71
2021/08/02 01:13:38;;;;;;;2.30;1.63;;;;;;;;;;5051839;28;20076;-70
2021/08/02 01:16:08;;;;;;;2.08;1.20;;;;;;;;;;5048001;28;20128;-71
2021/08/02 01:18:38;;;;;;;2.10;1.40;;;;;;;;;;5051009;28;20124;-71
2021/08/02 01:21:07;;;;;;;2.90;1.42;;;;;;;;;;5050641;28;20124;-72
2021/08/02 01:23:37;;;;;;;1.52;1.10;;;;;;;;;;5046804;28;20127;-71
2021/08/02 01:26:20;;;;;;;2.00;1.33;;;;;;;;;;5050797;28;20103;-71
2021/08/02 01:29:07;;;;;;;1.63;1.13;;;;;;;;;;5050869;28;20132;-71
2021/08/02 01:31:35;;;;;;;2.65;1.50;;;;;;;;;;5050479;28;20515;-72
2021/08/02 01:34:04;;;;;;;2.17;1.30;;;;;;;;;;5044808;28;20048;-71
2021/08/02 01:36:32;;;;;;;1.60;1.25;;;;;;;;;;5050600;28;20440;-70
2021/08/02 01:39:02;;;;;;;2.00;1.30;;;;;;;;;;5050129;28;20118;-70
2021/08/02 01:41:30;;;;;;;2.25;1.40;;;;;;;;;;5050700;28;20076;-71
2021/08/02 01:43:58;;;;;;;3.30;1.60;;;;;;;;;;5049874;28;20057;-71
2021/08/02 01:46:31;;;;;;;3.58;1.38;;;;;;;;;;5049850;28;20132;-71
2021/08/02 01:49:02;;;;;;;5.45;1.27;;;;;;;;;;5050656;28;20485;-70
2021/08/02 01:51:34;;;;;;;1.80;1.30;;;;;;;;;;5050642;28;20051;-70
2021/08/02 01:54:07;;;;;;;2.05;1.83;;;;;;;;;;5049914;28;20040;-71
2021/08/02 01:56:36;;;;;;;2.08;1.55;;;;;;;;;;5043315;28;20089;-71
2021/08/02 01:59:08;;;;;;;1.77;1.40;;;;;;;;;;5049006;28;20139;-71
2021/08/02 02:01:38;;;;;;;1.80;1.30;;;;;;;;;;5042888;28;20472;-72
2021/08/02 02:04:07;;;;;;;4.88;1.40;;;;;;;;;;5046718;28;20049;-71
2021/08/02 02:06:37;;;;;;;2.88;1.63;;;;;;;;;;5032074;28;20180;-71
2021/08/02 02:09:07;;;;;;;3.67;1.35;;;;;;;;;;5043451;28;20144;-71
2021/08/02 02:11:36;;;;;;;2.03;1.40;;;;;;;;;;5033876;28;20132;-70
2021/08/02 02:14:05;;;;;;;2.13;1.30;;;;;;;;;;5045852;28;20496;-71
2021/08/02 02:16:34;;;;;;;2.78;1.60;;;;;;;;;;5049962;28;20045;-71
2021/08/02 02:19:04;;;;;;;1.80;1.40;;;;;;;;;;5049655;28;20045;-71
2021/08/02 02:21:33;;;;;;;2.00;1.48;;;;;;;;;;5050032;28;20055;-70
2021/08/02 02:24:02;;;;;;;3.80;1.58;;;;;;;;;;5049277;28;20064;-70
2021/08/02 02:26:33;;;;;;;3.55;1.60;;;;;;;;;;5048438;28;20043;-70
2021/08/02 02:29:02;;;;;;;4.32;1.42;;;;;;;;;;5050120;28;20131;-71
2021/08/02 02:31:31;;;;;;;1.65;1.35;;;;;;;;;;5048854;28;20135;-70
2021/08/02 02:34:01;;;;;;;4.70;1.48;;;;;;;;;;5046839;28;20045;-70
2021/08/02 02:36:30;;;;;;;3.17;1.35;;;;;;;;;;5043961;28;20512;-70
2021/08/02 02:38:59;;;;;;;1.58;1.10;;;;;;;;;;5045758;28;20047;-70
2021/08/02 02:41:28;;;;;;;1.85;1.40;;;;;;;;;;5049345;28;20080;-70
2021/08/02 02:43:57;;;;;;;3.63;1.77;;;;;;;;;;5049005;28;20441;-71
2021/08/02 02:46:26;;;;;;;4.35;1.55;;;;;;;;;;5048384;28;20055;-71
2021/08/02 02:48:54;;;;;;;3.25;1.80;;;;;;;;;;5049850;28;20083;-71
2021/08/02 02:51:23;;;;;;;5.38;1.67;;;;;;;;;;5050667;28;20048;-72
2021/08/02 02:53:52;;;;;;;2.38;1.65;;;;;;;;;;5049639;28;20045;-71
2021/08/02 02:56:21;;;;;;;2.30;1.60;;;;;;;;;;5041490;28;20044;-70
2021/08/02 02:58:49;;;;;;;3.47;1.90;;;;;;;;;;5049402;28;20148;-71
2021/08/02 03:01:19;;;;;;;2.75;1.77;;;;;;;;;;5049723;28;20136;-71
2021/08/02 03:03:50;;;;;;;3.15;1.90;;;;;;;;;;5049653;28;20460;-71
2021/08/02 03:06:19;;;;;;;4.75;1.80;;;;;;;;;;5047642;28;20447;-71
2021/08/02 03:08:48;;;;;;;3.30;1.88;;;;;;;;;;5050016;28;20140;-71
2021/08/02 03:11:18;;;;;;;4.30;1.98;;;;;;;;;;5045412;28;20480;-70
2021/08/02 03:13:50;;;;;;;4.45;2.03;;;;;;;;;;5048612;28;20045;-70
2021/08/02 03:16:20;;;;;;;2.85;2.00;;;;;;;;;;5048144;28;20546;-71
2021/08/02 03:18:48;;;;;;;4.18;2.10;;;;;;;;;;5047082;28;20052;-71
2021/08/02 03:21:17;;;;;;;4.40;2.20;;;;;;;;;;5038172;28;20128;-70
2021/08/02 03:23:49;;;;;;;3.72;1.63;;;;;;;;;;5035755;28;20125;-70
2021/08/02 03:26:37;;;;;;;1.70;1.33;;;;;;;;;;2236980;28;10023721;-71
2021/08/02 03:29:10;;;;;;;3.55;2.05;;;;;;;;;;3654010;28;10001628;-71
2021/08/02 03:31:42;;;;;;;3.75;2.22;;;;;;;;;;5039063;28;20423;-71
2021/08/02 03:34:14;;;;;;;5.75;2.63;;;;;;;;;;5039645;28;20055;-71
2021/08/02 03:36:43;;;;;;;4.40;2.08;;;;;;;;;;5049767;28;20060;-72
2021/08/02 03:39:12;;;;;;;4.40;2.47;;;;;;;;;;5045811;28;20038;-71
2021/08/02 03:41:41;;;;;;;3.85;2.17;;;;;;;;;;5045174;28;20504;-70
2021/08/02 03:44:10;;;;;;;5.60;2.35;;;;;;;;;;5046442;28;20128;-71
2021/08/02 03:46:40;;;;;;;5.00;2.50;;;;;;;;;;5048311;28;20053;-71
2021/08/02 03:49:08;;;;;;;5.78;2.70;;;;;;;;;;5034859;28;20136;-71
2021/08/02 03:51:37;;;;;;;3.17;2.13;;;;;;;;;;5033161;28;20077;-71
2021/08/02 03:54:05;;;;;;;4.32;2.47;;;;;;;;;;5044644;28;20059;-70
2021/08/02 03:56:34;;;;;;;4.18;2.53;;;;;;;;;;5048962;28;20544;-71
2021/08/02 03:59:02;;;;;;;3.55;2.20;;;;;;;;;;5051021;28;20056;-71
2021/08/02 04:01:30;;;;;;;6.72;2.88;;;;;;;;;;5052596;28;20052;-71
2021/08/02 04:04:00;;;;;;;7.20;2.70;;;;;;;;;;5051062;28;20064;-71
2021/08/02 04:06:30;;;;;;;5.75;2.60;;;;;;;;;;5046145;28;20041;-71
2021/08/02 04:08:58;;;;;;;4.80;2.60;;;;;;;;;;5052877;28;20074;-70
2021/08/02 04:11:26;;;;;;;5.35;2.92;;;;;;;;;;5050981;28;20049;-71
2021/08/02 04:13:55;;;;;;;5.93;3.05;;;;;;;;;;5049260;28;20055;-71
2021/08/02 04:16:23;;;;;;;4.70;2.50;;;;;;;;;;5051211;28;20139;-71
2021/08/02 04:18:51;;;;;;;5.35;2.53;;;;;;;;;;5053177;28;20084;-70
2021/08/02 04:21:21;;;;;;;4.40;2.47;;;;;;;;;;5049389;28;20414;-70
2021/08/02 04:23:49;;;;;;;5.55;2.50;;;;;;;;;;5047726;28;20127;-71
2021/08/02 04:26:17;;;;;;;3.67;2.22;;;;;;;;;;5041594;28;20084;-71
2021/08/02 04:28:46;;;;;;;5.25;3.00;;;;;;;;;;5036912;28;20551;-70
2021/08/02 04:31:14;;;;;;;4.05;2.50;;;;;;;;;;5043244;28;20147;-71
2021/08/02 04:33:42;;;;;;;7.00;2.75;;;;;;;;;;5047630;28;20049;-70
2021/08/02 04:36:12;;;;;;;5.88;2.65;;;;;;;;;;5048505;28;20538;-70
2021/08/02 04:38:41;;;;;;;5.70;2.75;;;;;;;;;;5050418;28;20132;-70
2021/08/02 04:41:10;;;;;;;4.57;2.60;;;;;;;;;;5047693;28;20103;-70
2021/08/02 04:43:38;;;;;;;6.18;2.50;;;;;;;;;;5049160;28;20052;-70
2021/08/02 04:46:06;;;;;;;5.65;2.70;;;;;;;;;;5044007;28;20563;-70
2021/08/02 04:48:34;;;;;;;5.00;2.67;;;;;;;;;;5044785;28;20103;-71
2021/08/02 04:51:03;;;;;;;5.00;2.80;;;;;;;;;;5043357;28;20124;-70
2021/08/02 04:53:31;;;;;;;5.93;3.20;;;;;;;;;;5048874;28;20049;-70
2021/08/02 04:56:01;;;;;;;5.90;2.60;;;;;;;;;;5048494;28;20148;-71
2021/08/02 04:58:29;;;;;;;6.13;2.85;;;;;;;;;;5045544;28;20128;-70
2021/08/02 05:00:57;;;;;;;3.88;2.58;;;;;;;;;;5044426;28;20488;-72
2021/08/02 05:03:25;;;;;;;5.82;3.03;;;;;;;;;;5048134;28;20076;-71
2021/08/02 05:05:54;;;;;;;7.53;2.65;;;;;;;;;;5047436;28;20069;-72
2021/08/02 05:08:23;;;;;;;6.22;2.38;;;;;;;;;;5046362;28;20479;-70
2021/08/02 05:10:51;;;;;;;6.00;2.70;;;;;;;;;;5038424;28;20167;-70
2021/08/02 05:13:21;;;;;;;5.57;2.45;;;;;;;;;;5027218;28;20053;-71
2021/08/02 05:15:49;;;;;;;5.40;2.40;;;;;;;;;;5036106;28;20086;-71
2021/08/02 05:18:17;;;;;;;4.55;2.55;;;;;;;;;;5038712;28;20049;-72
2021/08/02 05:20:45;;;;;;;5.72;2.63;;;;;;;;;;5041860;28;20040;-70
2021/08/02 05:23:14;;;;;;;5.38;2.72;;;;;;;;;;5032561;28;20762;-72
2021/08/02 05:25:42;;;;;;;5.45;2.75;;;;;;;;;;5046402;28;20072;-71
2021/08/02 05:28:10;;;;;;;3.97;2.40;;;;;;;;;;5046899;28;20404;-71
2021/08/02 05:30:40;;;;;;;5.85;2.70;;;;;;;;;;5047819;28;20052;-71
2021/08/02 05:33:08;;;;;;;4.50;2.65;;;;;;;;;;5046778;28;20576;-72
2021/08/02 05:35:37;;;;;;;9.07;3.30;;;;;;;;;;5028725;28;20192;-71
2021/08/02 05:38:05;;;;;;;6.82;3.33;;;;;;;;;;5035848;28;20176;-72
2021/08/02 05:40:33;;;;;;;5.38;2.90;;;;;;;;;;5038628;28;20049;-73
2021/08/02 05:43:01;;;;;;;6.15;3.53;;;;;;;;;;5048333;28;20132;-71
2021/08/02 05:45:30;;;;;;;7.38;3.10;;;;;;;;;;5043280;28;20045;-70
2021/08/02 05:47:59;;;;;;;5.53;2.88;;;;;;;;;;5040471;28;20049;-71
2021/08/02 05:50:28;;;;;;;7.95;3.25;;;;;;;;;;5044067;28;20458;-71
2021/08/02 05:52:57;;;;;;;7.57;3.50;;;;;;;;;;5032286;28;20412;-73
2021/08/02 05:55:25;;;;;;;6.28;3.20;;;;;;;;;;5044548;28;20057;-73
2021/08/02 05:57:53;;;;;;;7.78;2.88;;;;;;;;;;5046434;28;20660;-74
2021/08/02 06:00:22;;;;;;;6.18;2.85;;;;;;;;;;5046525;28;20055;-73
2021/08/02 06:02:50;;;;;;;7.13;3.22;;;;;;;;;;5046081;28;20060;-71
2021/08/02 06:05:20;;;;;;;5.18;2.90;;;;;;;;;;5038271;28;20045;-72
2021/08/02 06:07:49;;;;;;;6.50;3.30;;;;;;;;;;5029712;28;20387;-71
2021/08/02 06:10:17;;;;;;;9.05;3.13;;;;;;;;;;5046661;28;20056;-72
2021/08/02 06:12:46;;;;;;;8.98;2.90;;;;;;;;;;5043278;28;20707;-73
2021/08/02 06:15:15;;;;;;;6.53;3.55;;;;;;;;;;5039423;28;20304;-72
2021/08/02 06:17:44;;;;;;;6.90;3.30;;;;;;;;;;5041522;28;20513;-70
2021/08/02 06:20:13;;;;;;;6.65;3.03;;;;;;;;;;5046106;28;20049;-71
2021/08/02 06:22:42;;;;;;;7.07;2.83;;;;;;;;;;5039801;28;20139;-70
2021/08/02 06:25:12;;;;;;;8.55;3.10;;;;;;;;;;5044400;28;20041;-74
2021/08/02 06:27:40;;;;;;;7.82;2.78;;;;;;;;;;5033088;28;20147;-72
2021/08/02 06:30:09;;;;;;;7.93;3.42;;;;;;;;;;5046159;28;20049;-71
2021/08/02 06:32:37;;;;;;;7.38;2.95;;;;;;;;;;5042131;28;20325;-71
2021/08/02 06:35:06;;;;;;;7.03;3.05;;;;;;;;;;5041678;28;20048;-72
2021/08/02 06:37:35;;;;;;;5.22;2.95;;;;;;;;;;5040594;28;20055;-71
2021/08/02 06:40:05;;;;;;;6.85;3.33;;;;;;;;;;5042412;28;20131;-71
2021/08/02 06:42:33;;;;;;;5.53;2.78;;;;;;;;;;5046408;28;20163;-72
2021/08/02 06:45:02;;;;;;;7.15;2.83;;;;;;;;;;5042047;28;20489;-71
2021/08/02 06:47:30;;;;;;;9.70;3.05;;;;;;;;;;5044523;28;20918;-70
2021/08/02 06:49:58;;;;;;;6.05;2.80;;;;;;;;;;5045656;28;20140;-71
2021/08/02 06:52:26;;;;;;;8.45;3.05;;;;;;;;;;5046199;28;20918;-71
2021/08/02 06:54:55;;;;;;;6.22;2.67;;;;;;;;;;5036660;28;20164;-72
2021/08/02 06:57:24;;;;;;;4.68;2.70;;;;;;;;;;5040702;28;20049;-72
2021/08/02 06:59:55;;;;;;;4.07;2.57;;;;;;;;;;5039750;28;20049;-73
2021/08/02 07:02:24;;;;;;;9.43;2.90;;;;;;;;;;5039369;28;20132;-73
2021/08/02 07:04:52;;;;;;;5.05;2.78;;;;;;;;;;5037564;28;20049;-71
2021/08/02 07:07:21;;;;;;;5.93;2.60;;;;;;;;;;5044290;28;20053;-71
2021/08/02 07:09:49;;;;;;;4.25;2.28;;;;;;;;;;5044117;28;20053;-72
2021/08/02 07:12:18;;;;;;;5.03;2.15;;;;;;;;;;5037475;28;20080;-72
2021/08/02 07:14:48;;;;;;;4.22;2.58;;;;;;;;;;5039506;28;20588;-71
2021/08/02 07:17:16;;;;;;;8.70;2.70;;;;;;;;;;5026470;28;20136;-73
2021/08/02 07:19:45;;;;;;;5.10;2.80;;;;;;;;;;5039719;28;20112;-71
2021/08/02 07:22:13;;;;;;;4.85;2.42;;;;;;;;;;5035584;28;20130;-71
2021/08/02 07:24:42;;;;;;;4.07;2.63;;;;;;;;;;5042439;28;20068;-71
2021/08/02 07:27:10;;;;;;;4.07;1.95;;;;;;;;;;5040098;28;20568;-71
2021/08/02 07:29:39;;;;;;;6.78;2.35;;;;;;;;;;5040412;28;20088;-71
2021/08/02 07:32:09;;;;;;;7.13;2.30;;;;;;;;;;5041334;28;20075;-71
2021/08/02 07:34:37;;;;;;;5.20;2.38;;;;;;;;;;5036918;28;20049;-71
2021/08/02 07:37:06;;;;;;;7.63;2.40;;;;;;;;;;5039524;28;20052;-72
2021/08/02 07:39:35;;;;;;;4.10;2.25;;;;;;;;;;5048578;28;20095;-72
2021/08/02 07:42:03;;;;;;;3.70;2.00;;;;;;;;;;5048521;28;20049;-73
2021/08/02 07:44:32;;;;;;;3.38;2.10;;;;;;;;;;5048163;28;20119;-71
2021/08/02 07:47:00;;;;;;;4.05;2.25;;;;;;;;;;5043110;28;20590;-71
2021/08/02 07:49:31;;;;;;;3.60;2.17;;;;;;;;;;5030109;28;20053;-73
2021/08/02 07:52:00;;;;;;;4.43;2.35;;;;;;;;;;5047965;28;20766;-72
2021/08/02 07:54:28;;;;;;;5.97;2.67;;;;;;;;;;5047964;28;20049;-73
2021/08/02 07:56:57;;;;;;;4.18;2.20;;;;;;;;;;5042101;28;20128;-72
2021/08/02 07:59:25;;;;;;;4.30;2.42;;;;;;;;;;5043432;28;20048;-73
2021/08/02 08:01:54;;;;;;;3.20;1.73;;;;;;;;;;5032563;28;20085;-73
2021/08/02 08:04:23;;;;;;;5.82;2.30;;;;;;;;;;5036068;28;20481;-73
2021/08/02 08:06:52;;;;;;;4.32;2.35;;;;;;;;;;5045062;28;20059;-73
2021/08/02 08:09:21;;;;;;;5.18;2.70;;;;;;;;;;5043406;28;20045;-72
2021/08/02 08:11:50;;;;;;;5.35;2.33;;;;;;;;;;5043848;28;20060;-73
2021/08/02 08:14:19;;;;;;;3.85;2.35;;;;;;;;;;5044445;28;20060;-74
2021/08/02 08:16:47;;;;;;;3.28;2.20;;;;;;;;;;5047632;28;20053;-74
2021/08/02 08:19:16;;;;;;;3.03;1.77;;;;;;;;;;5044419;28;20512;-73
2021/08/02 08:21:45;;;;;;;3.47;2.00;;;;;;;;;;5048772;28;20079;-73
2021/08/02 08:24:15;;;;;;;4.57;2.30;;;;;;;;;;5046579;28;20115;-73
2021/08/02 08:26:44;;;;;;;3.80;2.40;;;;;;;;;;5030385;28;20050;-72
2021/08/02 08:29:12;;;;;;;6.32;2.60;;;;;;;;;;5040785;28;20107;-73
2021/08/02 08:31:41;;;;;;;4.53;2.13;;;;;;;;;;5048814;28;20420;-73
2021/08/02 08:34:09;;;;;;;3.67;2.28;;;;;;;;;;5046948;28;20048;-72
2021/08/02 08:36:37;;;;;;;3.40;2.20;;;;;;;;;;5042751;28;20124;-75
2021/08/02 08:39:06;;;;;;;4.47;2.40;;;;;;;;;;5047360;28;20106;-72
2021/08/02 08:41:37;;;;;;;6.65;1.92;;;;;;;;;;5046324;28;20047;-72
2021/08/02 08:44:05;;;;;;;4.63;2.08;;;;;;;;;;5043481;28;20396;-72
2021/08/02 08:46:34;;;;;;;4.95;1.92;;;;;;;;;;5045834;28;20051;-76
2021/08/02 08:49:03;;;;;;;3.20;1.98;;;;;;;;;;5038947;28;20049;-72
2021/08/02 08:51:32;;;;;;;3.22;1.88;;;;;;;;;;5047536;28;20064;-74
2021/08/02 08:54:00;;;;;;;5.03;2.00;;;;;;;;;;5046839;28;20083;-73
2021/08/02 08:56:29;;;;;;;4.20;2.50;;;;;;;;;;5035224;28;20080;-72
2021/08/02 08:58:59;;;;;;;2.85;1.88;;;;;;;;;;5052378;28;20083;-75
2021/08/02 09:01:28;;;;;;;2.80;1.85;;;;;;;;;;5047366;28;20049;-72
2021/08/02 09:03:58;;;;;;;5.60;1.90;;;;;;;;;;5046737;28;20060;-73
2021/08/02 09:06:27;;;;;;;4.28;2.10;;;;;;;;;;5044166;28;20045;-72
2021/08/02 09:08:55;;;;;;;3.75;2.08;;;;;;;;;;5037876;28;20077;-73
2021/08/02 09:11:25;;;;;;;4.80;2.03;;;;;;;;;;5045014;28;20052;-74
2021/08/02 09:13:54;;;;;;;3.65;2.13;;;;;;;;;;5034028;28;20152;-73
2021/08/02 09:16:25;;;;;;;3.95;1.90;;;;;;;;;;5043606;28;20777;-73
2021/08/02 09:18:58;;;;;;;3.65;1.70;;;;;;;;;;5038396;28;20120;-75
2021/08/02 09:21:27;;;;;;;5.35;2.75;;;;;;;;;;5041365;28;20056;-76
2021/08/02 09:23:57;;;;;;;2.63;1.70;;;;;;;;;;5037513;28;20346;-72
2021/08/02 09:26:29;;;;;;;3.15;1.90;;;;;;;;;;5043003;28;20526;-72
2021/08/02 09:28:58;;;;;;;2.30;1.60;;;;;;;;;;5042460;28;20059;-78
2021/08/02 09:31:35;;;;;;;3.17;1.70;;;;;;;;;;5046048;28;20053;-75
2021/08/02 09:34:04;;;;;;;3.65;2.10;;;;;;;;;;5045266;28;20554;-73
2021/08/02 09:36:39;;;;;;;3.53;1.70;;;;;;;;;;5046088;28;20057;-73
2021/08/02 09:39:08;;;;;;;5.65;2.08;;;;;;;;;;5037201;28;20544;-73
2021/08/02 09:41:36;;;;;;;2.45;1.67;;;;;;;;;;5040439;28;20135;-72
2021/08/02 09:44:06;;;;;;;3.17;1.90;;;;;;;;;;5038580;28;20090;-74
2021/08/02 09:46:36;;;;;;;3.58;1.92;;;;;;;;;;5046030;28;20049;-74
2021/08/02 09:49:05;;;;;;;3.60;1.70;;;;;;;;;;5046211;28;20096;-73
2021/08/02 09:51:42;;;;;;;5.47;1.80;;;;;;;;;;5038073;28;20565;-73
2021/08/02 09:54:11;;;;;;;4.00;2.05;;;;;;;;;;5031340;28;20053;-73
2021/08/02 09:56:39;;;;;;;2.35;1.60;;;;;;;;;;5040577;28;20095;-73
2021/08/02 09:59:08;;;;;;;3.85;1.45;;;;;;;;;;5042003;28;20128;-74
2021/08/02 10:01:38;;;;;;;2.72;1.75;;;;;;;;;;5031737;28;20501;-72
2021/08/02 10:04:08;;;;;;;2.95;1.40;;;;;;;;;;5036338;28;20060;-72
2021/08/02 10:06:37;;;;;;;2.33;1.48;;;;;;;;;;5043666;28;20845;-72
2021/08/02 10:09:07;;;;;;;3.22;1.73;;;;;;;;;;5046236;28;20045;-73
2021/08/02 10:11:35;;;;;;;5.18;1.63;;;;;;;;;;5037224;28;20476;-73
2021/08/02 10:14:04;;;;;;;2.20;1.50;;;;;;;;;;5045772;28;20053;-74
2021/08/02 10:16:33;;;;;;;2.35;1.63;;;;;;;;;;5047427;28;20061;-77
2021/08/02 10:19:05;;;;;;;3.58;1.80;;;;;;;;;;5044961;28;20472;-73
2021/08/02 10:21:40;;;;;;;2.25;1.60;;;;;;;;;;5048413;28;20053;-73
2021/08/02 10:24:09;;;;;;;3.30;1.42;;;;;;;;;;5047817;28;20052;-74
2021/08/02 10:26:37;;;;;;;2.28;1.80;;;;;;;;;;5044869;28;20505;-74
2021/08/02 10:29:07;;;;;;;2.65;1.60;;;;;;;;;;5046733;28;20469;-74
2021/08/02 10:31:44;;;;;;;4.90;1.60;;;;;;;;;;5039319;28;20473;-75
2021/08/02 10:34:18;;;;;;;1.95;1.38;;;;;;;;;;5039732;28;20048;-74
2021/08/02 10:36:59;;;;;;;3.35;1.80;;;;;;;;;;5046562;28;20136;-73
2021/08/02 10:39:28;;;;;;;5.07;1.75;;;;;;;;;;5061331;28;20056;-73
2021/08/02 10:42:07;;;;;;;7.38;2.10;;;;;;;;;;5048944;28;20049;-74
2021/08/02 10:44:55;;;;;;;2.85;1.52;;;;;;;;;;5043980;28;20065;-74
2021/08/02 10:47:24;;;;;;;3.45;1.70;;;;;;;;;;5045004;28;20059;-74
2021/08/02 10:49:54;;;;;;;3.35;2.00;;;;;;;;;;5038746;28;20064;-73
2021/08/02 10:52:26;;;;;;;4.25;1.88;;;;;;;;;;5043687;28;20463;-72
2021/08/02 10:54:55;;;;;;;5.45;2.38;;;;;;;;;;5035221;28;20061;-76
2021/08/02 10:57:23;;;;;;;5.05;1.73;;;;;;;;;;5042928;28;20049;-72
2021/08/02 10:59:51;;;;;;;2.80;1.67;;;;;;;;;;5046973;28;20171;-72
2021/08/02 11:02:21;;;;;;;3.47;1.63;;;;;;;;;;5047699;28;20144;-72
2021/08/02 11:04:55;;;;;;;3.60;1.85;;;;;;;;;;5039866;28;20064;-73
2021/08/02 11:07:23;;;;;;;5.15;1.70;;;;;;;;;;5048972;28;20049;-73
2021/08/02 11:09:52;;;;;;;2.92;2.03;;;;;;;;;;5046933;28;20101;-76
2021/08/02 11:12:21;;;;;;;2.20;1.48;;;;;;;;;;5039971;28;20453;-74
2021/08/02 11:14:50;;;;;;;7.32;1.38;;;;;;;;;;5049630;28;20079;-73
2021/08/02 11:17:19;;;;;;;2.90;1.10;;;;;;;;;;5048191;28;20049;-72
2021/08/02 11:20:07;;;;;;;1.58;1.10;;;;;;;;;;5045372;28;20079;-73
2021/08/02 11:22:39;;;;;;;2.00;1.20;;;;;;;;;;5043843;28;20045;-71
2021/08/02 11:25:08;;;;;;;1.58;1.20;;;;;;;;;;5049276;28;20447;-72
2021/08/02 11:27:36;;;;;;;2.50;1.15;;;;;;;;;;5041977;28;20068;-73
2021/08/02 11:30:06;;;;;;;4.68;1.00;;;;;;;;;;5042377;28;20080;-72
2021/08/02 11:32:34;;;;;;;3.00;1.25;;;;;;;;;;5047042;28;20049;-71
2021/08/02 11:35:02;;;;;;;1.58;1.00;;;;;;;;;;5047789;28;20053;-73
2021/08/02 11:37:32;;;;;;;2.22;0.95;;;;;;;;;;5048226;28;20049;-71
2021/08/02 11:40:02;;;;;;;2.45;1.00;;;;;;;;;;5049001;28;20224;-72
2021/08/02 11:42:31;;;;;;;2.00;1.50;;;;;;;;;;5039791;28;20053;-71
2021/08/02 11:45:00;;;;;;;2.75;1.35;;;;;;;;;;5046320;28;20132;-71
2021/08/02 11:47:31;;;;;;;2.63;1.70;;;;;;;;;;5034363;28;20041;-74
2021/08/02 11:49:59;;;;;;;3.67;1.77;;;;;;;;;;5047940;28;20056;-71
2021/08/02 11:52:28;;;;;;;4.53;1.42;;;;;;;;;;5039429;28;20095;-73
2021/08/02 11:55:01;;;;;;;2.45;1.48;;;;;;;;;;5036298;28;20039;-75
2021/08/02 11:57:30;;;;;;;3.17;1.40;;;;;;;;;;5030875;28;20053;-73
2021/08/02 12:00:00;;;;;;;4.55;1.63;;;;;;;;;;5037656;28;20073;-72
2021/08/02 12:02:32;;;;;;;3.15;1.60;;;;;;;;;;5044846;28;20056;-76
2021/08/02 12:05:01;;;;;;;3.63;1.38;;;;;;;;;;5041663;28;20144;-72
2021/08/02 12:07:32;;;;;;;4.53;1.58;;;;;;;;;;5047449;28;20489;-72
2021/08/02 12:10:11;;;;;;;2.05;1.48;;;;;;;;;;5033834;28;20045;-77
2021/08/02 12:13:01;;;;;;;2.15;1.40;;;;;;;;;;5044909;28;20516;-71
2021/08/02 12:15:30;;;;;;;3.97;1.48;;;;;;;;;;5044639;28;20052;-74
2021/08/02 12:17:58;;;;;;;4.53;1.33;;;;;;;;;;5045507;28;20060;-73
2021/08/02 12:20:31;;;;;;;1.77;1.30;;;;;;;;;;5046784;28;20113;-72
2021/08/02 12:22:59;;;;;;;2.90;1.50;;;;;;;;;;5042055;28;20044;-71
2021/08/02 12:25:36;;;;;;;3.25;1.33;;;;;;;;;;5048126;28;20053;-71
2021/08/02 12:28:06;;;;;;;2.47;1.10;;;;;;;;;;5037270;28;20045;-74
2021/08/02 12:30:35;;;;;;;1.40;0.88;;;;;;;;;;5036493;28;20099;-71
2021/08/02 12:33:03;;;;;;;1.95;1.05;;;;;;;;;;5033457;28;20076;-72
2021/08/02 12:35:32;;;;;;;2.03;0.90;;;;;;;;;;5043659;28;20072;-71
2021/08/02 12:38:01;;;;;;;5.28;1.00;;;;;;;;;;5045500;28;20481;-73
2021/08/02 12:40:29;;;;;;;1.33;0.90;;;;;;;;;;5040559;28;20091;-71
2021/08/02 12:42:59;;;;;;;2.55;0.98;;;;;;;;;;5045425;28;20049;-71
2021/08/02 12:45:28;;;;;;;1.38;0.95;;;;;;;;;;5045802;28;20046;-72
2021/08/02 12:47:56;;;;;;;1.42;0.95;;;;;;;;;;5051496;28;20049;-71
2021/08/02 12:50:25;;;;;;;4.30;1.10;;;;;;;;;;5048144;28;20086;-73
2021/08/02 12:52:53;;;;;;;3.05;1.15;;;;;;;;;;5052613;28;20048;-72
2021/08/02 12:55:22;;;;;;;3.38;1.17;;;;;;;;;;5050653;28;20052;-71
2021/08/02 12:57:50;;;;;;;1.75;1.00;;;;;;;;;;5049885;28;20049;-71
2021/08/02 13:00:22;;;;;;;1.85;1.10;;;;;;;;;;5047823;28;20049;-72
2021/08/02 13:02:50;;;;;;;2.78;1.25;;;;;;;;;;5048597;28;20077;-72
2021/08/02 13:05:19;;;;;;;3.97;1.10;;;;;;;;;;5041685;28;20057;-75
2021/08/02 13:07:47;;;;;;;2.67;1.35;;;;;;;;;;5048808;28;20053;-72
2021/08/02 13:10:16;;;;;;;1.92;1.30;;;;;;;;;;5047977;28;20091;-72
2021/08/02 13:12:44;;;;;;;2.20;1.10;;;;;;;;;;5041260;28;20141;-71
2021/08/02 13:15:12;;;;;;;1.73;1.00;;;;;;;;;;5029085;28;20058;-71
2021/08/02 13:17:42;;;;;;;2.05;1.10;;;;;;;;;;5036489;28;20041;-71
2021/08/02 13:20:12;;;;;;;3.42;1.42;;;;;;;;;;5048220;28;20402;-73
2021/08/02 13:22:46;;;;;;;2.63;1.35;;;;;;;;;;5047464;28;20477;-75
2021/08/02 13:28:01;;;;;;;2.90;1.42;;;;;;;;;;5041103;28;20519;-72
2021/08/02 13:30:30;;;;;;;2.97;1.55;;;;;;;;;;5030331;28;20049;-72
2021/08/02 13:33:00;;;;;;;1.70;1.33;;;;;;;;;;5038221;28;20129;-74
2021/08/02 13:35:28;;;;;;;3.80;1.30;;;;;;;;;;5044890;28;20114;-74
2021/08/02 13:37:57;;;;;;;4.97;1.20;;;;;;;;;;5043893;28;20791;-71
2021/08/02 13:40:25;;;;;;;3.85;1.38;;;;;;;;;;5033451;28;20040;-79
2021/08/02 13:43:06;;;;;;;2.55;1.20;;;;;;;;;;5040620;28;20144;-74
2021/08/02 13:45:36;;;;;;;1.58;1.00;;;;;;;;;;5040591;28;20055;-72
2021/08/02 13:48:07;;;;;;;1.58;1.00;;;;;;;;;;5043072;28;20560;-73
2021/08/02 13:50:36;;;;;;;2.35;1.13;;;;;;;;;;5047433;28;20148;-76
2021/08/02 13:53:04;;;;;;;1.50;1.10;;;;;;;;;;5039038;28;20049;-73
2021/08/02 13:55:32;;;;;;;2.22;1.10;;;;;;;;;;5046474;28;20065;-73
2021/08/02 13:58:01;;;;;;;1.65;1.00;;;;;;;;;;5044393;28;20471;-73
2021/08/02 14:00:29;;;;;;;2.00;0.88;;;;;;;;;;5046143;28;20076;-73
2021/08/02 14:02:57;;;;;;;1.48;1.05;;;;;;;;;;5042140;28;20160;-74
2021/08/02 14:05:28;;;;;;;1.10;0.80;;;;;;;;;;5039209;28;20061;-71
2021/08/02 14:08:17;;;;;;;1.92;1.00;;;;;;;;;;5046993;28;20052;-72
2021/08/02 14:10:45;;;;;;;1.50;0.75;;;;;;;;;;5047287;28;20138;-72
2021/08/02 14:13:14;;;;;;;2.78;1.05;;;;;;;;;;5045732;28;20049;-74
2021/08/02 14:15:47;;;;;;;2.72;1.40;;;;;;;;;;5038256;28;20054;-71
2021/08/02 14:18:20;;;;;;;1.48;1.00;;;;;;;;;;5042762;28;20076;-73
2021/08/02 14:20:50;;;;;;;1.55;1.10;;;;;;;;;;5039873;28;20053;-73
2021/08/02 14:23:20;;;;;;;2.13;1.02;;;;;;;;;;5045531;28;20423;-75
2021/08/02 14:26:02;;;;;;;1.33;0.93;;;;;;;;;;5040048;28;20464;-71
2021/08/02 14:28:31;;;;;;;2.65;1.05;;;;;;;;;;5044673;28;20132;-72
2021/08/02 14:30:59;;;;;;;1.95;1.10;;;;;;;;;;5039135;28;20490;-71
2021/08/02 14:33:30;;;;;;;1.40;0.95;;;;;;;;;;5048596;28;20045;-71
2021/08/02 14:36:03;;;;;;;1.42;1.10;;;;;;;;;;5039341;28;21196;-73
2021/08/02 14:38:32;;;;;;;1.77;1.20;;;;;;;;;;5046543;28;20132;-72
2021/08/02 14:41:01;;;;;;;1.60;1.00;;;;;;;;;;5039588;28;20060;-72
2021/08/02 14:43:31;;;;;;;3.75;1.17;;;;;;;;;;5034468;28;20048;-71
2021/08/02 14:45:59;;;;;;;3.55;1.40;;;;;;;;;;5048239;28;20128;-72
2021/08/02 14:48:28;;;;;;;2.47;1.35;;;;;;;;;;5050009;28;20107;-71
2021/08/02 14:50:58;;;;;;;1.73;1.00;;;;;;;;;;5042404;28;20059;-71
2021/08/02 14:53:28;;;;;;;1.85;1.10;;;;;;;;;;5046546;28;20524;-74
2021/08/02 14:55:56;;;;;;;1.80;1.02;;;;;;;;;;5044500;28;20145;-74
2021/08/02 14:58:25;;;;;;;2.47;1.13;;;;;;;;;;5047808;28;20402;-74
2021/08/02 15:00:53;;;;;;;1.95;1.10;;;;;;;;;;5047040;28;20155;-73